sensor_id;sensor_type;location;lat;lon;timestamp;P1;durP1;ratioP1;P2;durP2;ratioP2
72639;SDS011;60683;51.730;8.762;2023-03-01T00:00:42;6.20;;;2.47;;
72639;SDS011;60683;51.730;8.762;2023-03-01T00:03:21;7.20;;;3.03;;
72639;SDS011;60683;51.730;8.762;2023-03-01T00:05:49;5.50;;;3.15;;
72639;SDS011;60683;51.730;8.762;2023-03-01T00:08:17;8.75;;;3.05;;
72639;SDS011;60683;51.730;8.762;2023-03-01T00:10:45;7.95;;;3.88;;
72639;SDS011;60683;51.730;8.762;2023-03-01T00:13:12;6.80;;;3.50;;
72639;SDS011;60683;51.730;8.762;2023-03-01T00:15:41;9.27;;;3.97;;
72639;SDS011;60683;51.730;8.762;2023-03-01T00:18:09;8.27;;;3.58;;
72639;SDS011;60683;51.730;8.762;2023-03-01T00:20:37;6.00;;;3.22;;
72639;SDS011;60683;51.730;8.762;2023-03-01T00:23:04;6.85;;;3.00;;
72639;SDS011;60683;51.730;8.762;2023-03-01T00:25:32;12.25;;;4.35;;
72639;SDS011;60683;51.730;8.762;2023-03-01T00:27:59;9.20;;;4.03;;
72639;SDS011;60683;51.730;8.762;2023-03-01T00:30:27;8.80;;;4.40;;
72639;SDS011;60683;51.730;8.762;2023-03-01T00:32:56;6.57;;;3.35;;
72639;SDS011;60683;51.730;8.762;2023-03-01T00:35:23;8.27;;;2.53;;
72639;SDS011;60683;51.730;8.762;2023-03-01T00:37:51;4.57;;;2.50;;
72639;SDS011;60683;51.730;8.762;2023-03-01T00:40:23;10.45;;;4.03;;
72639;SDS011;60683;51.730;8.762;2023-03-01T00:42:51;7.15;;;2.85;;
72639;SDS011;60683;51.730;8.762;2023-03-01T00:45:18;6.80;;;3.15;;
72639;SDS011;60683;51.730;8.762;2023-03-01T00:47:46;10.85;;;4.05;;
72639;SDS011;60683;51.730;8.762;2023-03-01T00:50:15;9.68;;;4.65;;
72639;SDS011;60683;51.730;8.762;2023-03-01T00:52:43;6.88;;;3.17;;
72639;SDS011;60683;51.730;8.762;2023-03-01T00:55:11;7.03;;;3.78;;
72639;SDS011;60683;51.730;8.762;2023-03-01T00:57:39;7.82;;;3.17;;
72639;SDS011;60683;51.730;8.762;2023-03-01T01:00:07;8.20;;;3.55;;
72639;SDS011;60683;51.730;8.762;2023-03-01T01:02:37;9.32;;;3.08;;
72639;SDS011;60683;51.730;8.762;2023-03-01T01:05:05;8.23;;;3.38;;
72639;SDS011;60683;51.730;8.762;2023-03-01T01:07:34;6.60;;;3.00;;
72639;SDS011;60683;51.730;8.762;2023-03-01T01:10:02;13.38;;;3.90;;
72639;SDS011;60683;51.730;8.762;2023-03-01T01:12:30;6.82;;;2.90;;
72639;SDS011;60683;51.730;8.762;2023-03-01T01:15:00;9.57;;;4.05;;
72639;SDS011;60683;51.730;8.762;2023-03-01T01:17:27;6.95;;;3.65;;
72639;SDS011;60683;51.730;8.762;2023-03-01T01:19:55;6.25;;;3.28;;
72639;SDS011;60683;51.730;8.762;2023-03-01T01:22:22;8.25;;;3.65;;
72639;SDS011;60683;51.730;8.762;2023-03-01T01:24:51;5.63;;;3.10;;
72639;SDS011;60683;51.730;8.762;2023-03-01T01:27:18;6.43;;;3.28;;
72639;SDS011;60683;51.730;8.762;2023-03-01T01:29:46;9.95;;;3.05;;
72639;SDS011;60683;51.730;8.762;2023-03-01T01:32:13;7.65;;;3.35;;
72639;SDS011;60683;51.730;8.762;2023-03-01T01:34:41;6.43;;;3.47;;
72639;SDS011;60683;51.730;8.762;2023-03-01T01:37:08;7.45;;;3.55;;
72639;SDS011;60683;51.730;8.762;2023-03-01T01:39:36;9.60;;;3.95;;
72639;SDS011;60683;51.730;8.762;2023-03-01T01:42:05;6.57;;;3.47;;
72639;SDS011;60683;51.730;8.762;2023-03-01T01:44:32;8.40;;;3.10;;
72639;SDS011;60683;51.730;8.762;2023-03-01T01:47:01;8.98;;;3.78;;
72639;SDS011;60683;51.730;8.762;2023-03-01T01:49:31;8.13;;;4.03;;
72639;SDS011;60683;51.730;8.762;2023-03-01T01:52:02;7.38;;;3.22;;
72639;SDS011;60683;51.730;8.762;2023-03-01T01:54:37;7.40;;;3.58;;
72639;SDS011;60683;51.730;8.762;2023-03-01T01:57:10;6.65;;;2.78;;
72639;SDS011;60683;51.730;8.762;2023-03-01T01:59:40;9.45;;;3.08;;
72639;SDS011;60683;51.730;8.762;2023-03-01T02:02:09;6.50;;;3.30;;
72639;SDS011;60683;51.730;8.762;2023-03-01T02:04:37;10.10;;;4.05;;
72639;SDS011;60683;51.730;8.762;2023-03-01T02:07:06;9.10;;;3.72;;
72639;SDS011;60683;51.730;8.762;2023-03-01T02:12:03;6.32;;;3.35;;
72639;SDS011;60683;51.730;8.762;2023-03-01T02:14:34;9.00;;;3.38;;
72639;SDS011;60683;51.730;8.762;2023-03-01T02:17:01;7.47;;;3.40;;
72639;SDS011;60683;51.730;8.762;2023-03-01T02:19:32;12.18;;;3.92;;
72639;SDS011;60683;51.730;8.762;2023-03-01T02:22:10;7.07;;;2.53;;
72639;SDS011;60683;51.730;8.762;2023-03-01T02:24:44;7.88;;;3.70;;
72639;SDS011;60683;51.730;8.762;2023-03-01T02:27:16;8.68;;;3.13;;
72639;SDS011;60683;51.730;8.762;2023-03-01T02:29:50;8.07;;;3.20;;
72639;SDS011;60683;51.730;8.762;2023-03-01T02:32:18;6.00;;;2.80;;
72639;SDS011;60683;51.730;8.762;2023-03-01T02:34:50;6.90;;;2.55;;
72639;SDS011;60683;51.730;8.762;2023-03-01T02:37:19;3.88;;;2.28;;
72639;SDS011;60683;51.730;8.762;2023-03-01T02:39:51;6.95;;;3.58;;
72639;SDS011;60683;51.730;8.762;2023-03-01T02:42:25;5.20;;;3.10;;
72639;SDS011;60683;51.730;8.762;2023-03-01T02:44:55;7.18;;;2.92;;
72639;SDS011;60683;51.730;8.762;2023-03-01T02:47:22;8.02;;;4.22;;
72639;SDS011;60683;51.730;8.762;2023-03-01T02:49:50;5.57;;;3.28;;
72639;SDS011;60683;51.730;8.762;2023-03-01T02:52:21;6.15;;;2.85;;
72639;SDS011;60683;51.730;8.762;2023-03-01T02:54:55;6.28;;;3.55;;
72639;SDS011;60683;51.730;8.762;2023-03-01T02:57:26;8.13;;;3.78;;
72639;SDS011;60683;51.730;8.762;2023-03-01T02:59:55;6.97;;;3.50;;
72639;SDS011;60683;51.730;8.762;2023-03-01T03:02:26;5.60;;;3.35;;
72639;SDS011;60683;51.730;8.762;2023-03-01T03:05:03;6.53;;;3.17;;
72639;SDS011;60683;51.730;8.762;2023-03-01T03:07:34;8.00;;;3.63;;
72639;SDS011;60683;51.730;8.762;2023-03-01T03:10:03;7.35;;;2.95;;
72639;SDS011;60683;51.730;8.762;2023-03-01T03:12:32;9.77;;;3.88;;
72639;SDS011;60683;51.730;8.762;2023-03-01T03:15:00;7.45;;;3.45;;
72639;SDS011;60683;51.730;8.762;2023-03-01T03:17:35;7.45;;;3.60;;
72639;SDS011;60683;51.730;8.762;2023-03-01T03:20:03;6.85;;;2.88;;
72639;SDS011;60683;51.730;8.762;2023-03-01T03:22:31;7.63;;;3.75;;
72639;SDS011;60683;51.730;8.762;2023-03-01T03:24:59;12.07;;;3.88;;
72639;SDS011;60683;51.730;8.762;2023-03-01T03:27:27;8.02;;;3.92;;
72639;SDS011;60683;51.730;8.762;2023-03-01T03:29:55;6.88;;;3.40;;
72639;SDS011;60683;51.730;8.762;2023-03-01T03:32:24;4.57;;;2.17;;
72639;SDS011;60683;51.730;8.762;2023-03-01T03:34:51;6.82;;;3.33;;
72639;SDS011;60683;51.730;8.762;2023-03-01T03:37:19;4.07;;;2.15;;
72639;SDS011;60683;51.730;8.762;2023-03-01T03:40:00;3.42;;;1.75;;
72639;SDS011;60683;51.730;8.762;2023-03-01T03:42:29;5.40;;;3.13;;
72639;SDS011;60683;51.730;8.762;2023-03-01T03:44:56;7.40;;;3.40;;
72639;SDS011;60683;51.730;8.762;2023-03-01T03:47:25;6.65;;;2.95;;
72639;SDS011;60683;51.730;8.762;2023-03-01T03:49:53;7.97;;;2.53;;
72639;SDS011;60683;51.730;8.762;2023-03-01T03:52:21;5.25;;;2.83;;
72639;SDS011;60683;51.730;8.762;2023-03-01T03:54:49;6.45;;;2.67;;
72639;SDS011;60683;51.730;8.762;2023-03-01T03:57:16;7.15;;;3.08;;
72639;SDS011;60683;51.730;8.762;2023-03-01T03:59:44;6.80;;;2.75;;
72639;SDS011;60683;51.730;8.762;2023-03-01T04:02:11;6.82;;;3.22;;
72639;SDS011;60683;51.730;8.762;2023-03-01T04:04:49;7.45;;;3.20;;
72639;SDS011;60683;51.730;8.762;2023-03-01T04:07:16;6.60;;;2.60;;
72639;SDS011;60683;51.730;8.762;2023-03-01T04:09:44;7.18;;;3.40;;
72639;SDS011;60683;51.730;8.762;2023-03-01T04:12:11;8.50;;;3.95;;
72639;SDS011;60683;51.730;8.762;2023-03-01T04:14:39;6.00;;;2.53;;
72639;SDS011;60683;51.730;8.762;2023-03-01T04:17:06;9.45;;;3.45;;
72639;SDS011;60683;51.730;8.762;2023-03-01T04:19:34;7.43;;;3.15;;
72639;SDS011;60683;51.730;8.762;2023-03-01T04:22:03;5.50;;;2.15;;
72639;SDS011;60683;51.730;8.762;2023-03-01T04:24:35;5.05;;;2.67;;
72639;SDS011;60683;51.730;8.762;2023-03-01T04:27:02;8.05;;;3.13;;
72639;SDS011;60683;51.730;8.762;2023-03-01T04:29:30;6.68;;;3.40;;
72639;SDS011;60683;51.730;8.762;2023-03-01T04:31:57;6.63;;;2.60;;
72639;SDS011;60683;51.730;8.762;2023-03-01T04:34:25;5.72;;;2.58;;
72639;SDS011;60683;51.730;8.762;2023-03-01T04:36:52;5.35;;;2.28;;
72639;SDS011;60683;51.730;8.762;2023-03-01T04:39:21;6.90;;;2.88;;
72639;SDS011;60683;51.730;8.762;2023-03-01T04:41:49;6.35;;;2.97;;
72639;SDS011;60683;51.730;8.762;2023-03-01T04:44:16;5.82;;;3.28;;
72639;SDS011;60683;51.730;8.762;2023-03-01T04:46:45;5.88;;;2.72;;
72639;SDS011;60683;51.730;8.762;2023-03-01T04:49:15;6.50;;;3.25;;
72639;SDS011;60683;51.730;8.762;2023-03-01T04:51:43;4.63;;;2.80;;
72639;SDS011;60683;51.730;8.762;2023-03-01T04:54:10;7.05;;;3.67;;
72639;SDS011;60683;51.730;8.762;2023-03-01T04:56:40;6.05;;;2.92;;
72639;SDS011;60683;51.730;8.762;2023-03-01T04:59:07;5.45;;;3.20;;
72639;SDS011;60683;51.730;8.762;2023-03-01T05:01:36;6.28;;;2.78;;
72639;SDS011;60683;51.730;8.762;2023-03-01T05:04:03;6.43;;;3.67;;
72639;SDS011;60683;51.730;8.762;2023-03-01T05:06:31;5.90;;;2.38;;
72639;SDS011;60683;51.730;8.762;2023-03-01T05:08:59;6.45;;;2.88;;
72639;SDS011;60683;51.730;8.762;2023-03-01T05:11:26;5.85;;;2.47;;
72639;SDS011;60683;51.730;8.762;2023-03-01T05:14:00;8.77;;;3.08;;
72639;SDS011;60683;51.730;8.762;2023-03-01T05:16:28;5.40;;;2.88;;
72639;SDS011;60683;51.730;8.762;2023-03-01T05:18:56;10.30;;;5.10;;
72639;SDS011;60683;51.730;8.762;2023-03-01T05:21:24;22.48;;;10.90;;
72639;SDS011;60683;51.730;8.762;2023-03-01T05:23:52;26.33;;;11.30;;
72639;SDS011;60683;51.730;8.762;2023-03-01T05:26:19;28.20;;;11.90;;
72639;SDS011;60683;51.730;8.762;2023-03-01T05:28:53;23.85;;;11.43;;
72639;SDS011;60683;51.730;8.762;2023-03-01T05:31:25;10.38;;;5.05;;
72639;SDS011;60683;51.730;8.762;2023-03-01T05:33:53;9.88;;;4.70;;
72639;SDS011;60683;51.730;8.762;2023-03-01T05:36:21;14.02;;;5.75;;
72639;SDS011;60683;51.730;8.762;2023-03-01T05:38:48;12.70;;;4.95;;
72639;SDS011;60683;51.730;8.762;2023-03-01T05:41:15;22.30;;;6.60;;
72639;SDS011;60683;51.730;8.762;2023-03-01T05:43:43;17.67;;;6.30;;
72639;SDS011;60683;51.730;8.762;2023-03-01T05:46:11;12.90;;;6.20;;
72639;SDS011;60683;51.730;8.762;2023-03-01T05:48:42;14.27;;;4.63;;
72639;SDS011;60683;51.730;8.762;2023-03-01T05:51:10;9.40;;;4.03;;
72639;SDS011;60683;51.730;8.762;2023-03-01T05:53:38;11.43;;;4.80;;
72639;SDS011;60683;51.730;8.762;2023-03-01T05:56:05;14.05;;;4.97;;
72639;SDS011;60683;51.730;8.762;2023-03-01T05:58:33;9.40;;;4.85;;
72639;SDS011;60683;51.730;8.762;2023-03-01T06:01:01;5.70;;;3.13;;
72639;SDS011;60683;51.730;8.762;2023-03-01T06:03:28;14.55;;;4.78;;
72639;SDS011;60683;51.730;8.762;2023-03-01T06:05:58;8.98;;;3.88;;
72639;SDS011;60683;51.730;8.762;2023-03-01T06:08:25;10.95;;;3.70;;
72639;SDS011;60683;51.730;8.762;2023-03-01T06:10:53;9.98;;;4.22;;
72639;SDS011;60683;51.730;8.762;2023-03-01T06:13:21;9.55;;;4.63;;
72639;SDS011;60683;51.730;8.762;2023-03-01T06:15:49;7.53;;;3.70;;
72639;SDS011;60683;51.730;8.762;2023-03-01T06:18:17;9.73;;;3.38;;
72639;SDS011;60683;51.730;8.762;2023-03-01T06:20:45;7.97;;;2.35;;
72639;SDS011;60683;51.730;8.762;2023-03-01T06:23:14;8.85;;;3.70;;
72639;SDS011;60683;51.730;8.762;2023-03-01T06:25:42;7.68;;;3.90;;
72639;SDS011;60683;51.730;8.762;2023-03-01T06:28:09;8.80;;;3.10;;
72639;SDS011;60683;51.730;8.762;2023-03-01T06:30:36;7.65;;;3.50;;
72639;SDS011;60683;51.730;8.762;2023-03-01T06:33:04;6.15;;;2.88;;
72639;SDS011;60683;51.730;8.762;2023-03-01T06:35:32;15.50;;;4.30;;
72639;SDS011;60683;51.730;8.762;2023-03-01T06:38:01;5.90;;;3.10;;
72639;SDS011;60683;51.730;8.762;2023-03-01T06:40:31;6.97;;;3.17;;
72639;SDS011;60683;51.730;8.762;2023-03-01T06:43:01;5.38;;;3.03;;
72639;SDS011;60683;51.730;8.762;2023-03-01T06:45:28;6.25;;;3.17;;
72639;SDS011;60683;51.730;8.762;2023-03-01T06:48:02;5.20;;;2.70;;
72639;SDS011;60683;51.730;8.762;2023-03-01T06:50:31;7.13;;;4.30;;
72639;SDS011;60683;51.730;8.762;2023-03-01T06:52:59;6.90;;;2.95;;
72639;SDS011;60683;51.730;8.762;2023-03-01T06:55:27;8.30;;;4.25;;
72639;SDS011;60683;51.730;8.762;2023-03-01T06:57:55;7.47;;;3.67;;
72639;SDS011;60683;51.730;8.762;2023-03-01T07:00:23;10.00;;;3.58;;
72639;SDS011;60683;51.730;8.762;2023-03-01T07:02:51;7.78;;;4.38;;
72639;SDS011;60683;51.730;8.762;2023-03-01T07:05:19;8.85;;;3.97;;
72639;SDS011;60683;51.730;8.762;2023-03-01T07:07:49;5.18;;;2.75;;
72639;SDS011;60683;51.730;8.762;2023-03-01T07:10:17;8.85;;;4.30;;
72639;SDS011;60683;51.730;8.762;2023-03-01T07:12:44;10.55;;;4.75;;
72639;SDS011;60683;51.730;8.762;2023-03-01T07:15:14;10.23;;;4.85;;
72639;SDS011;60683;51.730;8.762;2023-03-01T07:17:41;12.10;;;4.95;;
72639;SDS011;60683;51.730;8.762;2023-03-01T07:20:11;13.20;;;7.47;;
72639;SDS011;60683;51.730;8.762;2023-03-01T07:22:39;9.20;;;4.70;;
72639;SDS011;60683;51.730;8.762;2023-03-01T07:25:08;9.32;;;4.18;;
72639;SDS011;60683;51.730;8.762;2023-03-01T07:27:35;8.43;;;4.57;;
72639;SDS011;60683;51.730;8.762;2023-03-01T07:30:04;9.40;;;4.25;;
72639;SDS011;60683;51.730;8.762;2023-03-01T07:32:33;7.70;;;3.67;;
72639;SDS011;60683;51.730;8.762;2023-03-01T07:35:01;8.18;;;3.25;;
72639;SDS011;60683;51.730;8.762;2023-03-01T07:37:28;9.90;;;4.80;;
72639;SDS011;60683;51.730;8.762;2023-03-01T07:39:56;7.30;;;3.97;;
72639;SDS011;60683;51.730;8.762;2023-03-01T07:42:23;13.60;;;5.50;;
72639;SDS011;60683;51.730;8.762;2023-03-01T07:44:51;9.90;;;4.05;;
72639;SDS011;60683;51.730;8.762;2023-03-01T07:47:19;11.55;;;4.00;;
72639;SDS011;60683;51.730;8.762;2023-03-01T07:49:48;10.60;;;4.53;;
72639;SDS011;60683;51.730;8.762;2023-03-01T07:52:15;11.35;;;4.75;;
72639;SDS011;60683;51.730;8.762;2023-03-01T07:54:43;7.65;;;3.95;;
72639;SDS011;60683;51.730;8.762;2023-03-01T07:57:11;14.55;;;4.97;;
72639;SDS011;60683;51.730;8.762;2023-03-01T07:59:38;11.85;;;5.00;;
72639;SDS011;60683;51.730;8.762;2023-03-01T08:02:06;15.88;;;7.28;;
72639;SDS011;60683;51.730;8.762;2023-03-01T08:04:34;12.93;;;6.30;;
72639;SDS011;60683;51.730;8.762;2023-03-01T08:07:05;10.70;;;5.90;;
72639;SDS011;60683;51.730;8.762;2023-03-01T08:16:56;6.07;;;2.25;;
72639;SDS011;60683;51.730;8.762;2023-03-01T08:19:23;9.50;;;4.75;;
72639;SDS011;60683;51.730;8.762;2023-03-01T08:21:51;11.65;;;3.78;;
72639;SDS011;60683;51.730;8.762;2023-03-01T08:24:20;15.98;;;4.95;;
72639;SDS011;60683;51.730;8.762;2023-03-01T08:26:48;9.02;;;2.85;;
72639;SDS011;60683;51.730;8.762;2023-03-01T08:29:16;6.85;;;3.05;;
72639;SDS011;60683;51.730;8.762;2023-03-01T08:31:43;8.57;;;3.90;;
72639;SDS011;60683;51.730;8.762;2023-03-01T08:34:12;7.35;;;3.88;;
72639;SDS011;60683;51.730;8.762;2023-03-01T08:36:41;0.93;;;0.73;;
72639;SDS011;60683;51.730;8.762;2023-03-01T08:39:10;6.18;;;2.10;;
72639;SDS011;60683;51.730;8.762;2023-03-01T08:41:40;7.30;;;3.40;;
72639;SDS011;60683;51.730;8.762;2023-03-01T08:44:08;7.60;;;3.35;;
72639;SDS011;60683;51.730;8.762;2023-03-01T08:46:38;9.32;;;3.78;;
72639;SDS011;60683;51.730;8.762;2023-03-01T08:49:08;8.48;;;3.90;;
72639;SDS011;60683;51.730;8.762;2023-03-01T08:51:36;8.70;;;3.28;;
72639;SDS011;60683;51.730;8.762;2023-03-01T08:54:04;3.67;;;1.88;;
72639;SDS011;60683;51.730;8.762;2023-03-01T08:56:32;8.30;;;3.90;;
72639;SDS011;60683;51.730;8.762;2023-03-01T08:59:02;2.67;;;1.42;;
72639;SDS011;60683;51.730;8.762;2023-03-01T09:01:29;7.22;;;2.67;;
72639;SDS011;60683;51.730;8.762;2023-03-01T09:03:58;8.80;;;3.35;;
72639;SDS011;60683;51.730;8.762;2023-03-01T09:06:27;8.20;;;3.78;;
72639;SDS011;60683;51.730;8.762;2023-03-01T09:08:58;6.38;;;2.78;;
72639;SDS011;60683;51.730;8.762;2023-03-01T09:11:25;6.22;;;3.15;;
72639;SDS011;60683;51.730;8.762;2023-03-01T09:13:53;8.00;;;3.28;;
72639;SDS011;60683;51.730;8.762;2023-03-01T09:16:22;6.97;;;2.97;;
72639;SDS011;60683;51.730;8.762;2023-03-01T09:18:51;12.00;;;3.90;;
72639;SDS011;60683;51.730;8.762;2023-03-01T09:21:20;15.27;;;3.83;;
72639;SDS011;60683;51.730;8.762;2023-03-01T09:23:48;21.08;;;7.28;;
72639;SDS011;60683;51.730;8.762;2023-03-01T09:26:17;16.42;;;3.58;;
72639;SDS011;60683;51.730;8.762;2023-03-01T09:28:45;6.78;;;1.63;;
72639;SDS011;60683;51.730;8.762;2023-03-01T09:31:13;5.13;;;2.70;;
72639;SDS011;60683;51.730;8.762;2023-03-01T09:33:45;4.28;;;2.53;;
72639;SDS011;60683;51.730;8.762;2023-03-01T09:36:14;3.78;;;2.00;;
72639;SDS011;60683;51.730;8.762;2023-03-01T09:38:42;8.23;;;2.85;;
72639;SDS011;60683;51.730;8.762;2023-03-01T09:41:14;3.38;;;1.33;;
72639;SDS011;60683;51.730;8.762;2023-03-01T09:43:50;9.10;;;3.45;;
72639;SDS011;60683;51.730;8.762;2023-03-01T09:46:20;5.13;;;2.30;;
72639;SDS011;60683;51.730;8.762;2023-03-01T09:48:55;4.20;;;2.00;;
72639;SDS011;60683;51.730;8.762;2023-03-01T09:51:24;4.35;;;1.95;;
72639;SDS011;60683;51.730;8.762;2023-03-01T09:53:54;4.32;;;1.85;;
72639;SDS011;60683;51.730;8.762;2023-03-01T09:56:24;1.52;;;0.85;;
72639;SDS011;60683;51.730;8.762;2023-03-01T09:58:57;6.93;;;3.25;;
72639;SDS011;60683;51.730;8.762;2023-03-01T10:01:29;3.42;;;1.73;;
72639;SDS011;60683;51.730;8.762;2023-03-01T10:07:03;6.43;;;2.25;;
72639;SDS011;60683;51.730;8.762;2023-03-01T10:09:35;3.55;;;1.63;;
72639;SDS011;60683;51.730;8.762;2023-03-01T10:12:04;5.70;;;2.20;;
72639;SDS011;60683;51.730;8.762;2023-03-01T10:14:37;4.20;;;2.08;;
72639;SDS011;60683;51.730;8.762;2023-03-01T10:17:08;3.83;;;1.85;;
72639;SDS011;60683;51.730;8.762;2023-03-01T10:19:42;5.90;;;1.40;;
72639;SDS011;60683;51.730;8.762;2023-03-01T10:24:40;3.83;;;1.63;;
72639;SDS011;60683;51.730;8.762;2023-03-01T10:27:07;6.75;;;2.60;;
72639;SDS011;60683;51.730;8.762;2023-03-01T10:29:37;3.20;;;1.45;;
72639;SDS011;60683;51.730;8.762;2023-03-01T10:34:36;4.40;;;2.33;;
72639;SDS011;60683;51.730;8.762;2023-03-01T10:37:10;2.42;;;1.20;;
72639;SDS011;60683;51.730;8.762;2023-03-01T10:39:55;4.82;;;4.32;;
72639;SDS011;60683;51.730;8.762;2023-03-01T10:42:28;4.78;;;1.85;;
72639;SDS011;60683;51.730;8.762;2023-03-01T10:44:57;5.38;;;1.83;;
72639;SDS011;60683;51.730;8.762;2023-03-01T10:47:26;2.28;;;1.23;;
72639;SDS011;60683;51.730;8.762;2023-03-01T10:49:58;4.75;;;1.88;;
72639;SDS011;60683;51.730;8.762;2023-03-01T10:52:30;6.03;;;2.20;;
72639;SDS011;60683;51.730;8.762;2023-03-01T10:55:00;3.65;;;2.35;;
72639;SDS011;60683;51.730;8.762;2023-03-01T10:57:30;2.25;;;0.93;;
72639;SDS011;60683;51.730;8.762;2023-03-01T11:00:17;4.10;;;1.85;;
72639;SDS011;60683;51.730;8.762;2023-03-01T11:02:49;7.15;;;2.47;;
72639;SDS011;60683;51.730;8.762;2023-03-01T11:05:19;5.75;;;2.42;;
72639;SDS011;60683;51.730;8.762;2023-03-01T11:07:53;8.23;;;2.40;;
72639;SDS011;60683;51.730;8.762;2023-03-01T11:12:50;3.75;;;1.70;;
72639;SDS011;60683;51.730;8.762;2023-03-01T11:15:23;3.47;;;1.88;;
72639;SDS011;60683;51.730;8.762;2023-03-01T11:17:51;7.93;;;4.13;;
72639;SDS011;60683;51.730;8.762;2023-03-01T11:20:23;4.15;;;2.05;;
72639;SDS011;60683;51.730;8.762;2023-03-01T11:22:54;3.30;;;1.83;;
72639;SDS011;60683;51.730;8.762;2023-03-01T11:25:24;5.07;;;2.63;;
72639;SDS011;60683;51.730;8.762;2023-03-01T11:27:53;6.63;;;3.00;;
72639;SDS011;60683;51.730;8.762;2023-03-01T11:30:22;3.92;;;0.98;;
72639;SDS011;60683;51.730;8.762;2023-03-01T11:32:53;4.70;;;2.10;;
72639;SDS011;60683;51.730;8.762;2023-03-01T11:35:28;6.57;;;2.58;;
72639;SDS011;60683;51.730;8.762;2023-03-01T11:38:02;7.50;;;2.60;;
72639;SDS011;60683;51.730;8.762;2023-03-01T11:40:35;4.28;;;2.20;;
72639;SDS011;60683;51.730;8.762;2023-03-01T11:43:09;5.13;;;2.42;;
72639;SDS011;60683;51.730;8.762;2023-03-01T11:45:46;4.03;;;2.97;;
72639;SDS011;60683;51.730;8.762;2023-03-01T11:48:24;4.63;;;1.85;;
72639;SDS011;60683;51.730;8.762;2023-03-01T11:50:58;6.40;;;2.45;;
72639;SDS011;60683;51.730;8.762;2023-03-01T11:53:34;2.92;;;1.33;;
72639;SDS011;60683;51.730;8.762;2023-03-01T11:56:16;2.65;;;1.38;;
72639;SDS011;60683;51.730;8.762;2023-03-01T11:58:59;4.00;;;1.65;;
72639;SDS011;60683;51.730;8.762;2023-03-01T12:01:33;7.40;;;2.95;;
72639;SDS011;60683;51.730;8.762;2023-03-01T12:07:18;2.92;;;1.90;;
72639;SDS011;60683;51.730;8.762;2023-03-01T12:09:51;4.50;;;2.10;;
72639;SDS011;60683;51.730;8.762;2023-03-01T12:12:27;3.50;;;2.00;;
72639;SDS011;60683;51.730;8.762;2023-03-01T12:21:18;6.88;;;3.20;;
72639;SDS011;60683;51.730;8.762;2023-03-01T12:23:55;4.05;;;1.95;;
72639;SDS011;60683;51.730;8.762;2023-03-01T12:26:34;4.80;;;2.53;;
72639;SDS011;60683;51.730;8.762;2023-03-01T12:34:48;4.57;;;1.90;;
72639;SDS011;60683;51.730;8.762;2023-03-01T12:37:30;5.72;;;2.20;;
72639;SDS011;60683;51.730;8.762;2023-03-01T12:40:11;5.35;;;2.88;;
72639;SDS011;60683;51.730;8.762;2023-03-01T12:42:51;4.80;;;2.58;;
72639;SDS011;60683;51.730;8.762;2023-03-01T12:45:33;5.88;;;2.60;;
72639;SDS011;60683;51.730;8.762;2023-03-01T12:48:09;4.93;;;2.05;;
72639;SDS011;60683;51.730;8.762;2023-03-01T12:50:46;4.30;;;1.75;;
72639;SDS011;60683;51.730;8.762;2023-03-01T12:53:19;4.55;;;2.13;;
72639;SDS011;60683;51.730;8.762;2023-03-01T12:55:50;4.55;;;1.75;;
72639;SDS011;60683;51.730;8.762;2023-03-01T12:58:23;5.72;;;3.38;;
72639;SDS011;60683;51.730;8.762;2023-03-01T13:00:57;3.72;;;1.38;;
72639;SDS011;60683;51.730;8.762;2023-03-01T13:03:31;3.80;;;1.70;;
72639;SDS011;60683;51.730;8.762;2023-03-01T13:06:07;3.65;;;1.38;;
72639;SDS011;60683;51.730;8.762;2023-03-01T13:08:39;6.68;;;3.17;;
72639;SDS011;60683;51.730;8.762;2023-03-01T13:11:18;7.65;;;2.72;;
72639;SDS011;60683;51.730;8.762;2023-03-01T13:13:48;4.72;;;1.98;;
72639;SDS011;60683;51.730;8.762;2023-03-01T13:18:49;3.17;;;1.30;;
72639;SDS011;60683;51.730;8.762;2023-03-01T13:21:28;3.10;;;2.10;;
72639;SDS011;60683;51.730;8.762;2023-03-01T13:23:57;5.07;;;2.55;;
72639;SDS011;60683;51.730;8.762;2023-03-01T13:26:25;5.32;;;2.50;;
72639;SDS011;60683;51.730;8.762;2023-03-01T13:28:54;4.85;;;2.20;;
72639;SDS011;60683;51.730;8.762;2023-03-01T13:37:28;4.18;;;1.85;;
72639;SDS011;60683;51.730;8.762;2023-03-01T13:39:57;5.60;;;2.25;;
72639;SDS011;60683;51.730;8.762;2023-03-01T13:42:40;5.05;;;2.22;;
72639;SDS011;60683;51.730;8.762;2023-03-01T13:45:20;8.07;;;3.08;;
72639;SDS011;60683;51.730;8.762;2023-03-01T13:47:53;8.82;;;3.08;;
72639;SDS011;60683;51.730;8.762;2023-03-01T13:50:24;7.22;;;3.28;;
72639;SDS011;60683;51.730;8.762;2023-03-01T13:52:53;6.63;;;3.10;;
72639;SDS011;60683;51.730;8.762;2023-03-01T13:55:26;4.80;;;2.63;;
72639;SDS011;60683;51.730;8.762;2023-03-01T13:57:57;6.40;;;3.25;;
72639;SDS011;60683;51.730;8.762;2023-03-01T14:00:32;5.90;;;2.85;;
72639;SDS011;60683;51.730;8.762;2023-03-01T14:03:05;4.80;;;2.63;;
72639;SDS011;60683;51.730;8.762;2023-03-01T14:05:36;3.85;;;2.08;;
72639;SDS011;60683;51.730;8.762;2023-03-01T14:08:05;4.45;;;2.17;;
72639;SDS011;60683;51.730;8.762;2023-03-01T14:10:43;5.07;;;2.00;;
72639;SDS011;60683;51.730;8.762;2023-03-01T14:13:20;5.20;;;1.50;;
72639;SDS011;60683;51.730;8.762;2023-03-01T14:16:00;5.55;;;2.42;;
72639;SDS011;60683;51.730;8.762;2023-03-01T14:18:36;5.10;;;2.20;;
72639;SDS011;60683;51.730;8.762;2023-03-01T14:21:07;4.63;;;1.55;;
72639;SDS011;60683;51.730;8.762;2023-03-01T14:23:35;7.90;;;2.88;;
72639;SDS011;60683;51.730;8.762;2023-03-01T14:26:05;5.55;;;2.70;;
72639;SDS011;60683;51.730;8.762;2023-03-01T14:28:37;5.00;;;2.72;;
72639;SDS011;60683;51.730;8.762;2023-03-01T14:34:00;5.07;;;2.47;;
72639;SDS011;60683;51.730;8.762;2023-03-01T14:36:28;5.07;;;2.25;;
72639;SDS011;60683;51.730;8.762;2023-03-01T14:38:57;4.35;;;2.22;;
72639;SDS011;60683;51.730;8.762;2023-03-01T14:41:30;4.85;;;1.75;;
72639;SDS011;60683;51.730;8.762;2023-03-01T14:44:00;4.68;;;2.25;;
72639;SDS011;60683;51.730;8.762;2023-03-01T14:46:30;5.38;;;2.17;;
72639;SDS011;60683;51.730;8.762;2023-03-01T14:49:01;4.68;;;2.30;;
72639;SDS011;60683;51.730;8.762;2023-03-01T14:51:34;4.88;;;2.53;;
72639;SDS011;60683;51.730;8.762;2023-03-01T14:54:04;5.00;;;2.35;;
72639;SDS011;60683;51.730;8.762;2023-03-01T14:56:42;6.70;;;2.20;;
72639;SDS011;60683;51.730;8.762;2023-03-01T14:59:11;6.65;;;2.70;;
72639;SDS011;60683;51.730;8.762;2023-03-01T15:01:41;7.28;;;2.50;;
72639;SDS011;60683;51.730;8.762;2023-03-01T15:04:11;2.38;;;1.27;;
72639;SDS011;60683;51.730;8.762;2023-03-01T15:06:39;5.93;;;2.80;;
72639;SDS011;60683;51.730;8.762;2023-03-01T15:09:11;5.78;;;2.10;;
72639;SDS011;60683;51.730;8.762;2023-03-01T15:11:39;3.50;;;1.75;;
72639;SDS011;60683;51.730;8.762;2023-03-01T15:16:57;5.88;;;3.05;;
72639;SDS011;60683;51.730;8.762;2023-03-01T15:19:24;4.80;;;2.33;;
72639;SDS011;60683;51.730;8.762;2023-03-01T15:21:53;6.10;;;3.30;;
72639;SDS011;60683;51.730;8.762;2023-03-01T15:24:23;5.10;;;2.50;;
72639;SDS011;60683;51.730;8.762;2023-03-01T15:26:52;6.40;;;3.03;;
72639;SDS011;60683;51.730;8.762;2023-03-01T15:29:24;8.32;;;3.65;;
72639;SDS011;60683;51.730;8.762;2023-03-01T15:31:57;4.43;;;2.40;;
72639;SDS011;60683;51.730;8.762;2023-03-01T15:34:27;7.32;;;3.13;;
72639;SDS011;60683;51.730;8.762;2023-03-01T15:36:56;3.53;;;1.77;;
72639;SDS011;60683;51.730;8.762;2023-03-01T15:39:36;5.68;;;3.15;;
72639;SDS011;60683;51.730;8.762;2023-03-01T15:42:05;5.60;;;2.53;;
72639;SDS011;60683;51.730;8.762;2023-03-01T15:44:35;4.50;;;2.55;;
72639;SDS011;60683;51.730;8.762;2023-03-01T15:47:06;6.78;;;2.85;;
72639;SDS011;60683;51.730;8.762;2023-03-01T15:49:48;4.20;;;2.20;;
72639;SDS011;60683;51.730;8.762;2023-03-01T15:52:19;4.57;;;2.30;;